Time;durP1;ratioP1;P1;durP2;ratioP2;P2;SDS_P1;SDS_P2;PMS_P1;PMS_P2;Temp;Humidity;BMP_temperature;BMP_pressure;BME280_temperature;BME280_humidity;BME280_pressure;Samples;Min_cycle;Max_cycle;Signal;HPM_P1;HPM_P2
2023/08/26 00:01:25;;;;;;;;;;;19.30;85.30;;;;;;5093486;28;19915;-33
2023/08/26 00:03:50;;;;;;;;;;;19.30;85.30;;;;;;5093435;28;19908;-35
2023/08/26 00:06:16;;;;;;;;;;;19.30;85.30;;;;;;5093165;28;20283;-27
2023/08/26 00:08:41;;;;;;;;;;;19.30;85.30;;;;;;5093411;28;19908;-26
2023/08/26 00:11:07;;;;;;;;;;;19.30;85.30;;;;;;5093098;28;19912;-27
2023/08/26 00:13:32;;;;;;;;;;;19.20;85.30;;;;;;5093292;28;20348;-27
2023/08/26 00:15:58;;;;;;;;;;;19.20;85.40;;;;;;5093177;28;19919;-28
2023/08/26 00:18:23;;;;;;;;;;;19.10;85.50;;;;;;5092944;28;20375;-27
2023/08/26 00:20:51;;;;;;;;;;;19.00;85.50;;;;;;5093283;28;20151;-26
2023/08/26 00:23:17;;;;;;;;;;;19.00;85.60;;;;;;5091694;28;19974;-27
2023/08/26 00:25:42;;;;;;;;;;;19.00;85.60;;;;;;5093002;28;19908;-26
2023/08/26 00:28:08;;;;;;;;;;;19.10;85.60;;;;;;5092817;28;19912;-27
2023/08/26 00:30:33;;;;;;;;;;;19.00;85.50;;;;;;5093038;28;20271;-27
2023/08/26 00:32:59;;;;;;;;;;;19.10;85.50;;;;;;5092606;28;19912;-27
2023/08/26 00:35:25;;;;;;;;;;;19.10;85.50;;;;;;5093095;28;19969;-28
2023/08/26 00:37:51;;;;;;;;;;;19.10;85.50;;;;;;5092488;28;19916;-28
2023/08/26 00:40:17;;;;;;;;;;;19.10;85.40;;;;;;5092740;28;20387;-27
2023/08/26 00:42:43;;;;;;;;;;;19.10;85.40;;;;;;5093215;28;19955;-28
2023/08/26 00:45:09;;;;;;;;;;;19.10;85.40;;;;;;5092685;28;19912;-28
2023/08/26 00:47:38;;;;;;;;;;;19.10;85.40;;;;;;5092506;28;19908;-27
2023/08/26 00:50:03;;;;;;;;;;;19.00;85.30;;;;;;5092258;28;19912;-30
2023/08/26 00:52:29;;;;;;;;;;;19.00;85.30;;;;;;5092584;28;19970;-27
2023/08/26 00:54:55;;;;;;;;;;;19.00;85.30;;;;;;5092686;28;19908;-27
2023/08/26 00:57:20;;;;;;;;;;;19.00;85.20;;;;;;5092553;28;19947;-32
2023/08/26 00:59:46;;;;;;;;;;;18.90;85.20;;;;;;5092357;28;19908;-27
2023/08/26 01:02:11;;;;;;;;;;;18.90;85.30;;;;;;5092007;28;19923;-27
2023/08/26 01:04:37;;;;;;;;;;;18.80;85.30;;;;;;5092298;28;19912;-28
2023/08/26 01:07:04;;;;;;;;;;;18.70;85.30;;;;;;5092390;28;20405;-31
2023/08/26 01:09:29;;;;;;;;;;;18.70;85.50;;;;;;5092151;28;19919;-27
2023/08/26 01:12:15;;;;;;;;;;;18.70;85.50;;;;;;5092381;28;19912;-27
2023/08/26 01:14:44;;;;;;;;;;;18.70;85.50;;;;;;5092211;28;19908;-27
2023/08/26 01:17:11;;;;;;;;;;;18.60;85.40;;;;;;5092147;28;19908;-28
2023/08/26 01:19:38;;;;;;;;;;;18.70;85.40;;;;;;5092388;28;19912;-26
2023/08/26 01:22:09;;;;;;;;;;;18.70;85.20;;;;;;5090752;28;20363;-27
2023/08/26 01:24:36;;;;;;;;;;;18.70;85.10;;;;;;5092224;28;19908;-28
2023/08/26 01:27:02;;;;;;;;;;;18.70;85.00;;;;;;5092446;28;19912;-27
2023/08/26 01:29:27;;;;;;;;;;;18.80;85.00;;;;;;5091876;28;19912;-27
2023/08/26 01:32:15;;;;;;;;;;;18.80;85.00;;;;;;5092106;28;19908;-27
2023/08/26 01:34:41;;;;;;;;;;;18.80;84.90;;;;;;5091956;28;20003;-28
2023/08/26 01:37:08;;;;;;;;;;;18.80;84.90;;;;;;5092149;28;19915;-29
2023/08/26 01:39:34;;;;;;;;;;;18.80;84.90;;;;;;5091969;28;19915;-26
2023/08/26 01:42:00;;;;;;;;;;;18.80;84.90;;;;;;5092013;28;19908;-27
2023/08/26 01:44:26;;;;;;;;;;;18.80;84.80;;;;;;5092287;28;20394;-26
2023/08/26 01:46:53;;;;;;;;;;;18.80;84.80;;;;;;5096072;28;19908;-27
2023/08/26 01:49:19;;;;;;;;;;;18.80;84.80;;;;;;5095694;28;19912;-28
2023/08/26 01:51:45;;;;;;;;;;;18.80;84.80;;;;;;5094584;28;20356;-26
2023/08/26 01:54:10;;;;;;;;;;;18.80;84.80;;;;;;5094466;28;19912;-28
2023/08/26 01:56:36;;;;;;;;;;;18.80;84.80;;;;;;5095808;28;19998;-27
2023/08/26 01:59:02;;;;;;;;;;;18.80;84.80;;;;;;5095711;28;19916;-30
2023/08/26 02:01:27;;;;;;;;;;;18.80;84.80;;;;;;5095431;28;19908;-28
2023/08/26 02:03:53;;;;;;;;;;;18.80;84.80;;;;;;5095517;28;19915;-29
2023/08/26 02:06:18;;;;;;;;;;;18.80;84.80;;;;;;5094175;28;20007;-34
2023/08/26 02:08:44;;;;;;;;;;;18.80;84.80;;;;;;5094070;28;20257;-29
2023/08/26 02:11:09;;;;;;;;;;;18.70;84.70;;;;;;5095401;28;19912;-29
2023/08/26 02:13:35;;;;;;;;;;;18.60;84.40;;;;;;5095477;28;20364;-26
2023/08/26 02:16:00;;;;;;;;;;;18.60;84.50;;;;;;5095561;28;20337;-27
2023/08/26 02:18:26;;;;;;;;;;;18.50;84.60;;;;;;5095193;28;19908;-27
2023/08/26 02:20:51;;;;;;;;;;;18.40;84.60;;;;;;5093911;28;20273;-27
2023/08/26 02:23:17;;;;;;;;;;;18.40;84.50;;;;;;5095381;28;20356;-26
2023/08/26 02:25:43;;;;;;;;;;;18.30;84.50;;;;;;5095204;28;19987;-31
2023/08/26 02:28:08;;;;;;;;;;;18.40;84.60;;;;;;5095046;28;19915;-27
2023/08/26 02:30:34;;;;;;;;;;;18.30;84.50;;;;;;5095655;28;20433;-28
2023/08/26 02:33:00;;;;;;;;;;;18.30;84.30;;;;;;5095096;28;19908;-26
2023/08/26 02:35:26;;;;;;;;;;;18.10;84.20;;;;;;5095173;28;19908;-26
2023/08/26 02:37:51;;;;;;;;;;;18.10;84.80;;;;;;5095024;28;19912;-27
2023/08/26 02:40:17;;;;;;;;;;;18.00;84.20;;;;;;5095062;28;19908;-27
2023/08/26 02:42:43;;;;;;;;;;;18.00;84.30;;;;;;5094955;28;20011;-27
2023/08/26 02:45:08;;;;;;;;;;;18.00;84.30;;;;;;5095021;28;20364;-28
2023/08/26 02:47:34;;;;;;;;;;;17.90;84.30;;;;;;5094651;28;19973;-28
2023/08/26 02:50:00;;;;;;;;;;;17.90;84.90;;;;;;5094537;28;19916;-27
2023/08/26 02:52:25;;;;;;;;;;;17.90;84.10;;;;;;5094937;28;20007;-26
2023/08/26 02:54:51;;;;;;;;;;;17.90;84.10;;;;;;5094725;28;19946;-29
2023/08/26 02:57:17;;;;;;;;;;;17.80;83.90;;;;;;5094536;28;19908;-30
2023/08/26 02:59:43;;;;;;;;;;;17.70;83.70;;;;;;5094595;28;19915;-29
2023/08/26 03:02:09;;;;;;;;;;;17.70;83.90;;;;;;5093352;28;20415;-29
2023/08/26 03:04:34;;;;;;;;;;;17.60;83.60;;;;;;5094528;28;19909;-26
2023/08/26 03:07:00;;;;;;;;;;;17.50;83.60;;;;;;5093393;28;19978;-29
2023/08/26 03:09:29;;;;;;;;;;;17.50;83.70;;;;;;5093000;28;20429;-27
2023/08/26 03:11:58;;;;;;;;;;;17.50;83.60;;;;;;5093255;28;20303;-26
2023/08/26 03:14:23;;;;;;;;;;;17.50;83.60;;;;;;5093343;28;20004;-28
2023/08/26 03:16:49;;;;;;;;;;;17.50;83.40;;;;;;5093271;28;20384;-27
2023/08/26 03:19:14;;;;;;;;;;;17.40;83.20;;;;;;5092117;28;20391;-27
2023/08/26 03:21:40;;;;;;;;;;;17.30;82.90;;;;;;5093157;28;19912;-28
2023/08/26 03:24:05;;;;;;;;;;;17.30;83.00;;;;;;5091691;28;19908;-28
2023/08/26 03:26:31;;;;;;;;;;;17.20;82.90;;;;;;5093204;28;19998;-28
2023/08/26 03:28:56;;;;;;;;;;;17.20;83.00;;;;;;5093137;28;19958;-28
2023/08/26 03:31:22;;;;;;;;;;;17.10;83.10;;;;;;5092957;28;19912;-27
2023/08/26 03:33:47;;;;;;;;;;;17.10;83.20;;;;;;5091709;28;19909;-26
2023/08/26 03:36:13;;;;;;;;;;;17.10;83.20;;;;;;5092999;28;20007;-37
2023/08/26 03:38:38;;;;;;;;;;;17.10;83.20;;;;;;5091713;28;19958;-27
2023/08/26 03:41:04;;;;;;;;;;;17.10;83.20;;;;;;5092925;28;19909;-28
2023/08/26 03:43:30;;;;;;;;;;;17.10;83.20;;;;;;5092719;28;19974;-26
2023/08/26 03:45:55;;;;;;;;;;;17.10;83.30;;;;;;5092891;28;20392;-28
2023/08/26 03:48:21;;;;;;;;;;;17.10;83.20;;;;;;5091201;28;19915;-30
2023/08/26 03:50:50;;;;;;;;;;;17.00;83.20;;;;;;5092578;28;20066;-27
2023/08/26 03:53:16;;;;;;;;;;;17.00;83.20;;;;;;5091395;28;20326;-28
2023/08/26 03:55:42;;;;;;;;;;;16.90;83.30;;;;;;5092613;28;19908;-27
2023/08/26 03:58:07;;;;;;;;;;;16.80;83.30;;;;;;5092456;28;19916;-28
2023/08/26 04:00:33;;;;;;;;;;;16.80;83.50;;;;;;5092559;28;19909;-30
2023/08/26 04:02:58;;;;;;;;;;;16.80;83.50;;;;;;5092533;28;19909;-27
2023/08/26 04:05:24;;;;;;;;;;;16.70;83.60;;;;;;5030259;28;1758513;-26
2023/08/26 04:07:49;;;;;;;;;;;16.70;83.60;;;;;;5092575;28;19935;-26
2023/08/26 04:10:15;;;;;;;;;;;16.70;83.60;;;;;;5093176;28;19923;-27
2023/08/26 04:12:40;;;;;;;;;;;16.60;83.70;;;;;;5093290;28;19916;-27
2023/08/26 04:15:06;;;;;;;;;;;16.50;83.70;;;;;;5093247;28;19995;-34
2023/08/26 04:17:32;;;;;;;;;;;16.50;83.80;;;;;;5093069;28;20331;-34
2023/08/26 04:19:59;;;;;;;;;;;16.50;83.80;;;;;;5092993;28;19919;-30
2023/08/26 04:22:24;;;;;;;;;;;16.40;83.80;;;;;;5093155;28;20312;-27
2023/08/26 04:24:50;;;;;;;;;;;16.40;84.00;;;;;;5093067;28;19973;-27
2023/08/26 04:27:16;;;;;;;;;;;16.30;84.00;;;;;;5092921;28;20455;-30
2023/08/26 04:29:42;;;;;;;;;;;16.30;84.10;;;;;;5092926;28;19916;-28
2023/08/26 04:32:07;;;;;;;;;;;16.20;84.10;;;;;;5091661;28;20425;-28
2023/08/26 04:34:33;;;;;;;;;;;16.20;84.10;;;;;;5093001;28;20394;-27
2023/08/26 04:36:59;;;;;;;;;;;16.10;84.80;;;;;;5092820;28;19957;-26
2023/08/26 04:39:24;;;;;;;;;;;16.10;84.30;;;;;;5092502;28;20368;-29
2023/08/26 04:41:49;;;;;;;;;;;16.00;84.30;;;;;;5092763;28;19912;-26
2023/08/26 04:44:17;;;;;;;;;;;16.00;84.30;;;;;;5092592;28;19912;-34
2023/08/26 04:46:42;;;;;;;;;;;15.90;84.30;;;;;;5092698;28;19912;-27
2023/08/26 04:49:08;;;;;;;;;;;15.90;84.30;;;;;;5092248;28;19920;-29
2023/08/26 04:51:33;;;;;;;;;;;15.90;84.40;;;;;;5092411;28;19912;-27
2023/08/26 04:53:59;;;;;;;;;;;15.90;84.30;;;;;;5092655;28;20376;-30
2023/08/26 04:56:24;;;;;;;;;;;15.80;84.40;;;;;;5092671;28;20391;-28
2023/08/26 04:58:50;;;;;;;;;;;15.80;84.40;;;;;;5092355;28;19923;-30
2023/08/26 05:01:15;;;;;;;;;;;15.80;84.30;;;;;;5092461;28;19913;-28
2023/08/26 05:03:41;;;;;;;;;;;15.80;84.40;;;;;;5092564;28;19912;-29
2023/08/26 05:06:07;;;;;;;;;;;15.70;84.30;;;;;;5092385;28;20020;-30
2023/08/26 05:08:32;;;;;;;;;;;15.70;84.30;;;;;;5092301;28;19912;-26
2023/08/26 05:10:58;;;;;;;;;;;15.80;84.40;;;;;;5092419;28;19961;-29
2023/08/26 05:13:23;;;;;;;;;;;15.80;84.40;;;;;;5092505;28;19912;-27
2023/08/26 05:15:49;;;;;;;;;;;15.70;84.30;;;;;;5091141;28;19912;-27
2023/08/26 05:18:18;;;;;;;;;;;15.80;84.30;;;;;;5092363;28;20447;-26
2023/08/26 05:20:47;;;;;;;;;;;15.70;84.20;;;;;;5091238;28;19935;-29
2023/08/26 05:23:14;;;;;;;;;;;15.80;84.30;;;;;;5092266;28;19912;-28
2023/08/26 05:25:39;;;;;;;;;;;15.80;84.20;;;;;;5092236;28;19999;-29
2023/08/26 05:28:05;;;;;;;;;;;15.80;84.20;;;;;;5092292;28;20467;-26
2023/08/26 05:30:30;;;;;;;;;;;15.80;84.20;;;;;;5092130;28;19916;-27
2023/08/26 05:32:56;;;;;;;;;;;15.80;84.20;;;;;;5092260;28;19912;-27
2023/08/26 05:35:21;;;;;;;;;;;15.80;84.70;;;;;;5090932;28;19916;-33
2023/08/26 05:37:47;;;;;;;;;;;15.80;84.10;;;;;;5092044;28;19912;-26
2023/08/26 05:40:13;;;;;;;;;;;15.80;84.00;;;;;;5092231;28;19919;-26
2023/08/26 05:42:38;;;;;;;;;;;15.80;84.60;;;;;;5090740;28;19912;-31
2023/08/26 05:45:05;;;;;;;;;;;15.80;84.00;;;;;;5090839;28;19912;-26
2023/08/26 05:47:30;;;;;;;;;;;15.80;83.90;;;;;;5091920;28;19916;-27
2023/08/26 05:49:58;;;;;;;;;;;15.80;83.80;;;;;;5091790;28;20421;-27
2023/08/26 05:52:24;;;;;;;;;;;15.80;83.80;;;;;;5091955;28;19957;-26
2023/08/26 05:54:49;;;;;;;;;;;15.80;83.70;;;;;;5091919;28;20310;-27
2023/08/26 05:57:15;;;;;;;;;;;15.80;83.80;;;;;;5091898;28;19964;-33
2023/08/26 05:59:40;;;;;;;;;;;15.80;83.70;;;;;;5092216;28;19923;-28
2023/08/26 06:02:06;;;;;;;;;;;15.90;83.80;;;;;;5090664;28;19912;-28
2023/08/26 06:04:31;;;;;;;;;;;15.80;83.60;;;;;;5091909;28;19919;-28
2023/08/26 06:07:00;;;;;;;;;;;15.90;83.70;;;;;;5091787;28;20346;-26
2023/08/26 06:09:25;;;;;;;;;;;15.90;83.60;;;;;;5090256;28;19966;-26
2023/08/26 06:11:51;;;;;;;;;;;15.90;83.60;;;;;;5091795;28;19959;-29
2023/08/26 06:14:16;;;;;;;;;;;15.90;83.40;;;;;;5091862;28;20014;-27
2023/08/26 06:16:42;;;;;;;;;;;16.00;83.50;;;;;;5091725;28;19962;-27
2023/08/26 06:19:08;;;;;;;;;;;15.90;83.40;;;;;;5091683;28;19913;-27
2023/08/26 06:21:34;;;;;;;;;;;16.00;83.40;;;;;;5091950;28;19912;-26
2023/08/26 06:24:00;;;;;;;;;;;16.00;83.40;;;;;;5091701;28;19919;-27
2023/08/26 06:26:25;;;;;;;;;;;16.00;83.30;;;;;;5091771;28;19919;-26
2023/08/26 06:28:51;;;;;;;;;;;16.00;83.30;;;;;;5091554;28;19916;-26
2023/08/26 06:31:16;;;;;;;;;;;16.10;83.30;;;;;;5093141;28;20003;-26
2023/08/26 06:33:43;;;;;;;;;;;16.10;83.20;;;;;;5095525;28;19912;-27
2023/08/26 06:36:08;;;;;;;;;;;16.10;83.20;;;;;;5095420;28;19941;-31
2023/08/26 06:38:34;;;;;;;;;;;16.10;83.10;;;;;;5095068;28;19966;-26
2023/08/26 06:40:59;;;;;;;;;;;16.20;83.10;;;;;;5095148;28;20054;-27
2023/08/26 06:43:24;;;;;;;;;;;16.20;83.00;;;;;;5095065;28;19913;-26
2023/08/26 06:45:50;;;;;;;;;;;16.20;82.90;;;;;;5095114;28;19916;-27
2023/08/26 06:48:16;;;;;;;;;;;16.20;82.90;;;;;;5094831;28;19951;-28
2023/08/26 06:50:42;;;;;;;;;;;16.30;82.80;;;;;;5094685;28;20279;-30
2023/08/26 06:53:07;;;;;;;;;;;16.30;82.70;;;;;;5093597;28;19916;-32
2023/08/26 06:55:33;;;;;;;;;;;16.30;82.60;;;;;;5094700;28;19919;-29
2023/08/26 06:57:58;;;;;;;;;;;16.30;82.60;;;;;;5094673;28;19926;-27
2023/08/26 07:00:24;;;;;;;;;;;16.40;82.60;;;;;;5094744;28;19912;-27
2023/08/26 07:02:49;;;;;;;;;;;16.40;82.60;;;;;;5094815;28;19912;-26
2023/08/26 07:05:15;;;;;;;;;;;16.50;82.50;;;;;;5094690;28;19920;-26
2023/08/26 07:07:40;;;;;;;;;;;16.50;82.50;;;;;;5093173;28;19959;-26
2023/08/26 07:10:06;;;;;;;;;;;16.50;82.30;;;;;;5094553;28;20014;-26
2023/08/26 07:12:32;;;;;;;;;;;16.60;82.30;;;;;;5094469;28;19916;-26
2023/08/26 07:14:57;;;;;;;;;;;16.60;82.30;;;;;;5094587;28;19951;-26
2023/08/26 07:17:23;;;;;;;;;;;16.60;82.20;;;;;;5094430;28;19919;-26
2023/08/26 07:19:49;;;;;;;;;;;16.70;82.20;;;;;;5094259;28;19913;-28
2023/08/26 07:22:14;;;;;;;;;;;16.70;82.10;;;;;;5092869;28;19913;-26
2023/08/26 07:24:39;;;;;;;;;;;16.80;82.10;;;;;;5094664;28;20512;-30
2023/08/26 07:27:05;;;;;;;;;;;16.80;82.00;;;;;;5094207;28;19912;-25
2023/08/26 07:29:31;;;;;;;;;;;16.80;82.00;;;;;;5093793;28;19920;-29
2023/08/26 07:31:56;;;;;;;;;;;16.90;81.90;;;;;;5094126;28;19912;-28
2023/08/26 07:34:22;;;;;;;;;;;16.90;81.80;;;;;;5094087;28;20008;-25
2023/08/26 07:36:47;;;;;;;;;;;17.00;81.70;;;;;;5093912;28;20013;-25
2023/08/26 07:39:13;;;;;;;;;;;17.00;81.70;;;;;;5093695;28;19912;-26
2023/08/26 07:41:39;;;;;;;;;;;17.00;81.60;;;;;;5093755;28;19967;-27
2023/08/26 07:44:04;;;;;;;;;;;17.10;81.60;;;;;;5093120;28;20276;-25
2023/08/26 07:46:30;;;;;;;;;;;17.10;81.40;;;;;;5093737;28;19922;-26
2023/08/26 07:48:56;;;;;;;;;;;17.20;81.40;;;;;;5093454;28;20394;-26
2023/08/26 07:51:21;;;;;;;;;;;17.30;81.40;;;;;;5092092;28;19955;-31
2023/08/26 07:53:46;;;;;;;;;;;17.40;81.20;;;;;;5093636;28;19962;-26
2023/08/26 07:56:12;;;;;;;;;;;17.50;80.60;;;;;;5093312;28;20002;-26
2023/08/26 07:58:38;;;;;;;;;;;17.70;80.10;;;;;;5093416;28;19999;-26
2023/08/26 08:01:03;;;;;;;;;;;17.70;79.90;;;;;;5093754;28;19916;-27
2023/08/26 08:03:28;;;;;;;;;;;17.90;79.70;;;;;;5093498;28;19912;-30
2023/08/26 08:05:54;;;;;;;;;;;17.90;79.50;;;;;;5093223;28;19920;-27
2023/08/26 08:08:19;;;;;;;;;;;18.10;79.50;;;;;;5093338;28;20355;-29
2023/08/26 08:10:45;;;;;;;;;;;18.20;79.40;;;;;;5092136;28;19920;-27
2023/08/26 08:13:10;;;;;;;;;;;18.30;79.20;;;;;;5093561;28;19965;-28
2023/08/26 08:15:36;;;;;;;;;;;18.30;79.10;;;;;;5093276;28;19923;-28
2023/08/26 08:18:02;;;;;;;;;;;18.30;78.70;;;;;;5093123;28;19913;-28
2023/08/26 08:20:30;;;;;;;;;;;18.40;78.50;;;;;;5093404;28;19912;-26
2023/08/26 08:22:56;;;;;;;;;;;18.30;78.70;;;;;;5093108;28;19912;-27
2023/08/26 08:25:21;;;;;;;;;;;18.30;78.20;;;;;;5093103;28;19919;-28
2023/08/26 08:27:47;;;;;;;;;;;18.30;78.40;;;;;;5092947;28;19912;-26
2023/08/26 08:30:12;;;;;;;;;;;18.20;78.30;;;;;;5093005;28;19933;-29
2023/08/26 08:32:38;;;;;;;;;;;18.30;78.20;;;;;;5092953;28;19913;-27
2023/08/26 08:35:03;;;;;;;;;;;18.40;78.10;;;;;;5092976;28;19962;-28
2023/08/26 08:37:30;;;;;;;;;;;18.50;77.30;;;;;;5093126;28;19919;-28
2023/08/26 08:39:55;;;;;;;;;;;18.40;77.60;;;;;;5092835;28;19919;-29
2023/08/26 08:42:21;;;;;;;;;;;18.40;77.20;;;;;;5092724;28;19912;-27
2023/08/26 08:44:47;;;;;;;;;;;18.40;77.60;;;;;;5092673;28;19912;-27
2023/08/26 08:47:13;;;;;;;;;;;18.30;77.90;;;;;;5092615;28;19912;-33
2023/08/26 08:49:41;;;;;;;;;;;18.30;78.00;;;;;;5090940;28;20019;-26
2023/08/26 08:52:07;;;;;;;;;;;18.30;77.80;;;;;;5091276;28;19918;-26
2023/08/26 08:54:33;;;;;;;;;;;18.30;77.80;;;;;;5092208;28;19991;-26
2023/08/26 08:57:00;;;;;;;;;;;18.40;78.00;;;;;;5092643;28;20367;-27
2023/08/26 08:59:26;;;;;;;;;;;18.50;78.00;;;;;;5092429;28;20011;-27
2023/08/26 09:01:55;;;;;;;;;;;18.70;77.80;;;;;;5092579;28;19919;-27
2023/08/26 09:04:28;;;;;;;;;;;18.90;77.60;;;;;;5092601;28;20015;-26
2023/08/26 09:06:53;;;;;;;;;;;19.10;77.00;;;;;;5092240;28;19927;-26
2023/08/26 09:09:20;;;;;;;;;;;19.20;76.80;;;;;;5092191;28;20014;-31
2023/08/26 09:11:48;;;;;;;;;;;19.40;76.80;;;;;;5092468;28;20317;-26
2023/08/26 09:14:14;;;;;;;;;;;19.40;75.40;;;;;;5092448;28;19920;-27
2023/08/26 09:16:40;;;;;;;;;;;19.50;75.70;;;;;;5092354;28;19912;-27
2023/08/26 09:19:07;;;;;;;;;;;19.60;75.80;;;;;;5092136;28;20026;-27
2023/08/26 09:21:32;;;;;;;;;;;19.70;75.60;;;;;;5092500;28;19920;-27
2023/08/26 09:23:59;;;;;;;;;;;19.80;75.20;;;;;;5092309;28;19912;-27
2023/08/26 09:26:24;;;;;;;;;;;19.90;75.20;;;;;;5092278;28;20372;-27
2023/08/26 09:28:50;;;;;;;;;;;19.90;75.00;;;;;;5091946;28;19916;-27
2023/08/26 09:31:17;;;;;;;;;;;20.10;74.60;;;;;;5092011;28;19923;-35
2023/08/26 09:33:43;;;;;;;;;;;20.10;74.40;;;;;;5092209;28;19965;-29
2023/08/26 09:36:09;;;;;;;;;;;20.10;74.10;;;;;;5092145;28;19912;-28
2023/08/26 09:38:44;;;;;;;;;;;20.20;73.90;;;;;;5091866;28;19934;-28
2023/08/26 09:41:10;;;;;;;;;;;20.20;73.50;;;;;;5092092;28;19912;-26
2023/08/26 09:43:36;;;;;;;;;;;20.30;73.30;;;;;;5090976;28;20010;-28
2023/08/26 09:46:03;;;;;;;;;;;20.40;73.40;;;;;;5091996;28;19912;-28
2023/08/26 09:48:28;;;;;;;;;;;20.50;73.20;;;;;;5091813;28;19916;-30
2023/08/26 09:50:54;;;;;;;;;;;20.60;73.10;;;;;;5092155;28;19976;-27
2023/08/26 09:53:30;;;;;;;;;;;20.60;73.20;;;;;;5091977;28;19912;-27
2023/08/26 09:55:59;;;;;;;;;;;20.60;73.10;;;;;;5091886;28;20285;-26
2023/08/26 09:58:25;;;;;;;;;;;20.50;73.40;;;;;;5091805;28;19912;-26
2023/08/26 10:00:52;;;;;;;;;;;20.50;73.30;;;;;;5091991;28;20353;-27
2023/08/26 10:03:21;;;;;;;;;;;20.40;73.50;;;;;;5091992;28;19912;-27
2023/08/26 10:05:48;;;;;;;;;;;20.30;73.00;;;;;;5092865;28;20303;-26
2023/08/26 10:08:13;;;;;;;;;;;20.20;72.40;;;;;;5095576;28;19977;-27
2023/08/26 10:10:45;;;;;;;;;;;20.10;72.70;;;;;;5095646;28;20360;-28
2023/08/26 10:13:11;;;;;;;;;;;20.00;72.60;;;;;;5095689;28;19923;-28
2023/08/26 10:15:37;;;;;;;;;;;20.10;72.30;;;;;;5095613;28;19916;-27
2023/08/26 10:18:10;;;;;;;;;;;20.10;72.90;;;;;;5095343;28;20408;-27
2023/08/26 10:20:36;;;;;;;;;;;20.30;72.80;;;;;;5095366;28;19912;-28
2023/08/26 10:23:02;;;;;;;;;;;20.40;72.70;;;;;;5095504;28;19966;-29
2023/08/26 10:25:29;;;;;;;;;;;20.50;72.40;;;;;;5095389;28;19922;-25
2023/08/26 10:27:55;;;;;;;;;;;20.50;71.90;;;;;;5095159;28;19957;-27
2023/08/26 10:30:21;;;;;;;;;;;20.60;72.00;;;;;;5093890;28;19923;-29
2023/08/26 10:32:46;;;;;;;;;;;20.70;70.80;;;;;;5095391;28;20318;-26
2023/08/26 10:35:13;;;;;;;;;;;20.80;70.20;;;;;;5094015;28;19962;-31
2023/08/26 10:37:39;;;;;;;;;;;20.90;70.50;;;;;;5095053;28;20296;-25
2023/08/26 10:40:08;;;;;;;;;;;21.10;70.00;;;;;;5095077;28;19919;-30
2023/08/26 10:42:34;;;;;;;;;;;21.20;69.10;;;;;;5095102;28;19915;-27
2023/08/26 10:45:02;;;;;;;;;;;21.30;68.80;;;;;;5095096;28;20427;-26
2023/08/26 10:47:37;;;;;;;;;;;21.30;69.10;;;;;;5095039;28;19912;-44
2023/08/26 10:50:18;;;;;;;;;;;21.40;68.20;;;;;;5094605;28;20227;-43
2023/08/26 10:52:44;;;;;;;;;;;21.40;68.60;;;;;;5093582;28;19919;-45
2023/08/26 10:55:18;;;;;;;;;;;21.50;68.80;;;;;;5094773;28;19912;-49
2023/08/26 10:58:00;;;;;;;;;;;21.50;68.50;;;;;;5094790;28;19938;-43
2023/08/26 11:00:26;;;;;;;;;;;21.50;68.50;;;;;;5094640;28;20375;-44
2023/08/26 11:02:52;;;;;;;;;;;21.40;68.50;;;;;;5093452;28;19956;-45
2023/08/26 11:05:17;;;;;;;;;;;21.30;69.00;;;;;;5094427;28;19920;-44
2023/08/26 11:07:43;;;;;;;;;;;21.20;69.00;;;;;;5093226;28;20001;-44
2023/08/26 11:10:23;;;;;;;;;;;21.20;68.90;;;;;;5094594;28;19970;-44
2023/08/26 11:12:48;;;;;;;;;;;21.20;69.20;;;;;;5094528;28;19952;-44
2023/08/26 11:15:14;;;;;;;;;;;21.20;69.50;;;;;;5094475;28;20127;-44
2023/08/26 11:17:39;;;;;;;;;;;21.30;69.30;;;;;;5094257;28;19919;-45
2023/08/26 11:20:05;;;;;;;;;;;21.40;69.20;;;;;;5094232;28;19965;-44
2023/08/26 11:22:31;;;;;;;;;;;21.50;67.50;;;;;;5094287;28;19959;-45
2023/08/26 11:24:57;;;;;;;;;;;21.50;67.50;;;;;;5094302;28;19912;-38
2023/08/26 11:27:22;;;;;;;;;;;21.50;67.30;;;;;;5094128;28;19918;-39
2023/08/26 11:29:48;;;;;;;;;;;21.60;67.50;;;;;;5094068;28;20190;-38
2023/08/26 11:32:13;;;;;;;;;;;21.70;67.60;;;;;;5094043;28;19912;-39
2023/08/26 11:34:39;;;;;;;;;;;21.80;67.40;;;;;;5094020;28;19912;-37
2023/08/26 11:37:05;;;;;;;;;;;21.80;67.20;;;;;;5093991;28;19912;-38
2023/08/26 11:39:31;;;;;;;;;;;21.90;67.00;;;;;;5093796;28;19919;-39
2023/08/26 11:41:56;;;;;;;;;;;21.90;66.30;;;;;;5093876;28;19920;-37
2023/08/26 11:44:22;;;;;;;;;;;22.10;66.70;;;;;;5093725;28;20363;-38
2023/08/26 11:46:48;;;;;;;;;;;22.10;65.50;;;;;;5093815;28;19912;-38
2023/08/26 11:49:14;;;;;;;;;;;22.10;65.30;;;;;;5093500;28;19912;-38
2023/08/26 11:51:40;;;;;;;;;;;22.20;65.40;;;;;;5093637;28;19926;-36
2023/08/26 11:54:06;;;;;;;;;;;22.20;65.50;;;;;;5093792;28;19974;-38
2023/08/26 11:56:32;;;;;;;;;;;22.20;64.50;;;;;;5093395;28;19962;-40
2023/08/26 11:58:58;;;;;;;;;;;22.20;64.90;;;;;;5092232;28;19954;-38
2023/08/26 12:01:23;;;;;;;;;;;22.10;64.90;;;;;;5093335;28;19919;-40
2023/08/26 12:03:49;;;;;;;;;;;22.10;64.70;;;;;;5093467;28;20432;-37
2023/08/26 12:06:16;;;;;;;;;;;22.00;64.80;;;;;;5093302;28;19920;-46
2023/08/26 12:08:42;;;;;;;;;;;22.00;64.10;;;;;;5093379;28;19908;-39
2023/08/26 12:11:08;;;;;;;;;;;22.10;64.80;;;;;;5093425;28;19912;-39
2023/08/26 12:13:38;;;;;;;;;;;22.10;64.90;;;;;;5093233;28;19931;-39
2023/08/26 12:16:04;;;;;;;;;;;22.20;65.00;;;;;;5093339;28;19995;-37
2023/08/26 12:18:29;;;;;;;;;;;22.30;64.70;;;;;;5093037;28;19908;-37
2023/08/26 12:20:55;;;;;;;;;;;22.40;64.80;;;;;;5093125;28;20425;-36
2023/08/26 12:23:21;;;;;;;;;;;22.50;64.50;;;;;;5093157;28;19934;-39
2023/08/26 12:25:47;;;;;;;;;;;22.60;64.70;;;;;;5093231;28;19961;-39
2023/08/26 12:28:17;;;;;;;;;;;22.70;64.00;;;;;;5092516;28;19909;-39
2023/08/26 12:30:43;;;;;;;;;;;22.80;63.70;;;;;;5093084;28;19912;-37
2023/08/26 12:33:09;;;;;;;;;;;22.90;63.70;;;;;;5093014;28;20105;-39
2023/08/26 12:35:35;;;;;;;;;;;23.00;63.30;;;;;;5092941;28;19919;-38
2023/08/26 12:38:02;;;;;;;;;;;23.10;63.00;;;;;;5092680;28;19981;-38
2023/08/26 12:40:31;;;;;;;;;;;23.20;62.90;;;;;;5092856;28;19952;-39
2023/08/26 12:42:58;;;;;;;;;;;23.20;62.50;;;;;;5092650;28;19951;-39
2023/08/26 12:45:23;;;;;;;;;;;23.10;61.40;;;;;;5093105;28;19908;-39
2023/08/26 12:47:49;;;;;;;;;;;23.10;61.90;;;;;;5092836;28;19915;-47
2023/08/26 12:50:14;;;;;;;;;;;23.20;61.80;;;;;;5092656;28;19928;-39
2023/08/26 12:52:40;;;;;;;;;;;23.20;61.60;;;;;;5092634;28;19908;-38
2023/08/26 12:55:06;;;;;;;;;;;23.20;61.00;;;;;;5092672;28;19908;-38
2023/08/26 12:57:32;;;;;;;;;;;23.10;61.70;;;;;;5092362;28;19908;-37
2023/08/26 12:59:57;;;;;;;;;;;23.00;61.20;;;;;;5092455;28;19931;-37
2023/08/26 13:02:23;;;;;;;;;;;23.00;60.10;;;;;;5091174;28;19916;-38
2023/08/26 13:04:48;;;;;;;;;;;22.90;60.90;;;;;;5092421;28;19909;-37
2023/08/26 13:07:14;;;;;;;;;;;23.00;60.90;;;;;;5092208;28;19920;-37
2023/08/26 13:09:39;;;;;;;;;;;23.00;61.20;;;;;;5092131;28;19908;-37
2023/08/26 13:12:05;;;;;;;;;;;23.10;61.40;;;;;;5092367;28;20287;-39
2023/08/26 13:14:31;;;;;;;;;;;23.10;61.70;;;;;;5092333;28;19931;-37
2023/08/26 13:16:57;;;;;;;;;;;23.20;61.70;;;;;;5091077;28;19914;-41
2023/08/26 13:19:22;;;;;;;;;;;23.20;62.00;;;;;;5091937;28;19991;-37
2023/08/26 13:21:49;;;;;;;;;;;23.20;62.10;;;;;;5092356;28;19954;-37
2023/08/26 13:24:15;;;;;;;;;;;23.10;61.90;;;;;;5090797;28;19908;-39
2023/08/26 13:26:40;;;;;;;;;;;23.10;61.30;;;;;;5092307;28;20294;-37
2023/08/26 13:29:06;;;;;;;;;;;23.00;61.30;;;;;;5091863;28;20394;-45
2023/08/26 13:31:31;;;;;;;;;;;22.90;61.30;;;;;;5092229;28;19919;-38
2023/08/26 13:33:57;;;;;;;;;;;22.90;61.60;;;;;;5092054;28;19947;-37
2023/08/26 13:36:22;;;;;;;;;;;22.70;59.70;;;;;;5092052;28;19908;-38
2023/08/26 13:38:48;;;;;;;;;;;22.50;61.30;;;;;;5091884;28;19908;-37
2023/08/26 13:41:13;;;;;;;;;;;22.40;61.10;;;;;;5093659;28;19991;-38
2023/08/26 13:43:39;;;;;;;;;;;22.30;61.40;;;;;;5095841;28;19915;-37
2023/08/26 13:46:04;;;;;;;;;;;22.20;61.90;;;;;;5096362;28;19908;-37
2023/08/26 13:48:30;;;;;;;;;;;22.20;61.80;;;;;;5095668;28;20386;-36
2023/08/26 13:50:55;;;;;;;;;;;22.10;62.50;;;;;;5095797;28;19998;-38
2023/08/26 13:53:21;;;;;;;;;;;22.10;62.50;;;;;;5095871;28;19908;-36
2023/08/26 13:55:46;;;;;;;;;;;22.10;62.80;;;;;;5095834;28;20052;-37
2023/08/26 13:58:14;;;;;;;;;;;22.10;63.10;;;;;;5095611;28;19908;-37
2023/08/26 14:00:40;;;;;;;;;;;22.10;63.40;;;;;;5095780;28;20078;-38
2023/08/26 14:03:06;;;;;;;;;;;22.00;63.50;;;;;;5095790;28;20022;-38
2023/08/26 14:05:31;;;;;;;;;;;21.90;63.80;;;;;;5095528;28;19924;-38
2023/08/26 14:07:57;;;;;;;;;;;21.90;63.60;;;;;;5095690;28;19930;-42
2023/08/26 14:10:23;;;;;;;;;;;21.70;62.90;;;;;;5095330;28;19912;-38